createdAt,value
2023-05-05T00:01:03.265Z,59.93
2023-05-05T00:03:31.459Z,61.23
2023-05-05T00:05:59.731Z,61.96
2023-05-05T00:08:28.640Z,64.66
2023-05-05T00:10:57.672Z,71.47
2023-05-05T00:13:26.069Z,66.78
2023-05-05T00:15:54.343Z,62.30
2023-05-05T00:18:22.662Z,60.30
2023-05-05T00:20:50.976Z,58.37
2023-05-05T00:23:19.480Z,56.97
2023-05-05T00:25:47.509Z,57.54
2023-05-05T00:28:15.476Z,58.65
2023-05-05T00:30:43.682Z,58.28
2023-05-05T00:33:12.470Z,58.15
2023-05-05T00:35:40.768Z,58.97
2023-05-05T00:38:09.504Z,58.34
2023-05-05T00:40:38.160Z,58.08
2023-05-05T00:43:06.268Z,58.52
2023-05-05T00:45:37.046Z,59.34
2023-05-05T00:48:06.115Z,60.17
2023-05-05T00:50:34.909Z,62.73
2023-05-05T00:53:06.241Z,67.39
2023-05-05T00:55:35.041Z,70.59
2023-05-05T00:58:04.448Z,69.65
2023-05-05T01:00:32.873Z,67.60
2023-05-05T01:03:01.620Z,65.59
2023-05-05T01:05:47.396Z,64.29
2023-05-05T01:08:19.771Z,63.31
2023-05-05T01:10:58.920Z,62.79
2023-05-05T01:13:55.433Z,61.85
2023-05-05T01:16:31.355Z,60.86
2023-05-05T01:19:50.069Z,60.34
2023-05-05T01:22:20.946Z,58.88
2023-05-05T01:25:09.964Z,57.07
2023-05-05T01:28:03.105Z,58.47
2023-05-05T01:31:01.790Z,57.19
2023-05-05T01:33:36.178Z,56.41
2023-05-05T01:36:08.461Z,56.68
2023-05-05T01:38:42.592Z,56.98
2023-05-05T01:41:17.700Z,57.90
2023-05-05T01:43:47.942Z,57.82
2023-05-05T01:46:16.900Z,58.75
2023-05-05T01:48:45.211Z,58.89
2023-05-05T01:51:13.387Z,58.90
2023-05-05T01:53:41.770Z,59.56
2023-05-05T01:56:10.458Z,62.84
2023-05-05T01:58:38.710Z,69.57
2023-05-05T02:01:06.789Z,71.71
2023-05-05T02:03:34.806Z,69.32
2023-05-05T02:06:02.932Z,67.94
2023-05-05T02:08:30.900Z,66.58
2023-05-05T02:10:59.081Z,64.95
2023-05-05T02:13:27.260Z,63.78
2023-05-05T02:15:55.220Z,63.11
2023-05-05T02:18:23.328Z,61.88
2023-05-05T02:20:53.305Z,60.77
2023-05-05T02:23:21.548Z,60.11
2023-05-05T02:25:51.121Z,59.40
2023-05-05T02:28:22.596Z,57.12
2023-05-05T02:30:58.198Z,57.71
2023-05-05T02:33:27.586Z,58.33
2023-05-05T02:35:55.868Z,59.45
2023-05-05T02:38:28.086Z,60.55
2023-05-05T02:40:57.332Z,59.64
2023-05-05T02:43:25.358Z,58.88
2023-05-05T02:45:53.643Z,59.15
2023-05-05T02:48:22.261Z,60.24
2023-05-05T02:50:51.148Z,60.33
2023-05-05T02:53:29.555Z,61.11
2023-05-05T02:56:08.510Z,60.93
2023-05-05T02:58:54.428Z,64.14
2023-05-05T03:01:46.832Z,69.38
2023-05-05T03:04:39.464Z,72.01
2023-05-05T03:07:13.304Z,68.86
2023-05-05T03:10:14.029Z,66.62
2023-05-05T03:13:03.911Z,65.15
2023-05-05T03:15:48.308Z,64.31
2023-05-05T03:18:17.802Z,62.68
2023-05-05T03:20:49.074Z,62.44
2023-05-05T03:23:23.010Z,61.78
2023-05-05T03:25:55.077Z,61.44
2023-05-05T03:28:35.716Z,60.89
2023-05-05T03:31:08.503Z,58.77
2023-05-05T03:33:37.796Z,57.93
2023-05-05T03:36:06.403Z,59.06
2023-05-05T03:38:34.702Z,59.64
2023-05-05T03:41:06.042Z,60.56
2023-05-05T03:43:34.332Z,60.15
2023-05-05T03:46:02.896Z,59.27
2023-05-05T03:48:31.589Z,59.26
2023-05-05T03:51:00.434Z,60.13
2023-05-05T03:53:29.333Z,66.87
2023-05-05T03:55:57.395Z,70.34
2023-05-05T03:58:25.711Z,70.32
2023-05-05T04:00:53.720Z,68.32
2023-05-05T04:03:22.704Z,65.57
2023-05-05T04:05:51.519Z,63.76
2023-05-05T04:08:19.739Z,63.26
2023-05-05T04:10:48.077Z,62.66
2023-05-05T04:13:17.128Z,61.95
2023-05-05T04:15:46.551Z,60.44
2023-05-05T04:18:15.263Z,58.05
2023-05-05T04:20:43.625Z,55.85
2023-05-05T04:23:12.011Z,56.22
2023-05-05T04:25:40.898Z,56.90
2023-05-05T04:28:09.006Z,58.45
2023-05-05T04:30:37.756Z,58.68
2023-05-05T04:33:05.838Z,58.93
2023-05-05T04:35:34.241Z,59.44
2023-05-05T04:38:02.486Z,59.28
2023-05-05T04:40:30.544Z,58.57
2023-05-05T04:42:58.828Z,59.54
2023-05-05T04:45:27.313Z,62.19
2023-05-05T04:47:56.839Z,63.41
2023-05-05T04:50:24.851Z,62.57
2023-05-05T04:52:53.193Z,57.45
2023-05-05T04:55:21.902Z,53.74
2023-05-05T04:57:49.955Z,53.67
2023-05-05T05:00:18.396Z,53.69
2023-05-05T05:02:46.557Z,53.80
2023-05-05T05:05:14.882Z,54.08
2023-05-05T05:07:43.017Z,54.32
2023-05-05T05:10:11.331Z,55.69
2023-05-05T05:12:39.812Z,60.81
2023-05-05T05:15:09.185Z,58.92
2023-05-05T05:17:37.391Z,55.62
2023-05-05T05:20:08.055Z,53.99
2023-05-05T05:22:38.998Z,52.98
2023-05-05T05:25:10.415Z,52.32
2023-05-05T05:27:38.723Z,54.00
2023-05-05T05:30:09.869Z,52.48
2023-05-05T05:32:38.315Z,49.08
2023-05-05T05:35:07.431Z,52.68
2023-05-05T05:37:35.937Z,46.85
2023-05-05T05:40:05.889Z,43.16
2023-05-05T05:42:34.431Z,41.08
2023-05-05T05:45:03.938Z,38.28
2023-05-05T05:47:32.726Z,37.81
2023-05-05T05:50:01.716Z,35.61
2023-05-05T05:52:31.554Z,35.56
2023-05-05T05:54:59.754Z,35.13
2023-05-05T05:57:28.087Z,33.07
2023-05-05T05:59:56.670Z,32.38
2023-05-05T06:02:27.308Z,30.05
2023-05-05T06:04:56.281Z,30.74
2023-05-05T06:07:24.516Z,29.66
2023-05-05T06:09:52.521Z,30.36
2023-05-05T06:12:21.209Z,26.92
2023-05-05T06:14:49.622Z,26.59
2023-05-05T06:17:17.716Z,25.96
2023-05-05T06:19:45.686Z,29.44
2023-05-05T06:22:13.717Z,28.70
2023-05-05T06:24:42.242Z,27.21
2023-05-05T06:27:10.613Z,26.04
2023-05-05T06:29:38.709Z,27.12
2023-05-05T06:32:08.424Z,29.73
2023-05-05T06:34:36.440Z,29.42
2023-05-05T06:37:04.463Z,27.11
2023-05-05T06:39:32.524Z,24.13
2023-05-05T06:42:00.623Z,24.58
2023-05-05T06:44:28.739Z,23.56
2023-05-05T06:46:57.261Z,22.82
2023-05-05T06:49:25.340Z,21.48
2023-05-05T06:51:53.411Z,22.05
2023-05-05T06:54:21.528Z,21.06
2023-05-05T06:56:49.565Z,20.86
2023-05-05T06:59:17.568Z,22.59
2023-05-05T07:01:45.590Z,24.14
2023-05-05T07:04:13.723Z,23.14
2023-05-05T07:06:41.841Z,22.93
2023-05-05T07:09:09.970Z,23.56
2023-05-05T07:11:38.077Z,20.91
2023-05-05T07:14:06.464Z,21.04
2023-05-05T07:16:37.249Z,21.79
2023-05-05T07:19:08.237Z,21.08
2023-05-05T07:21:36.831Z,20.81
2023-05-05T07:24:05.604Z,21.72
2023-05-05T07:26:33.794Z,22.16
2023-05-05T07:29:02.713Z,21.79
2023-05-05T07:31:31.063Z,22.08
2023-05-05T07:33:59.002Z,23.31
2023-05-05T07:36:28.032Z,21.63
2023-05-05T07:38:56.299Z,22.16
2023-05-05T07:41:24.273Z,22.13
2023-05-05T07:43:52.415Z,22.33
2023-05-05T07:46:20.500Z,21.54
2023-05-05T07:48:48.634Z,21.40
2023-05-05T07:51:17.042Z,21.79
2023-05-05T07:53:45.278Z,19.41
2023-05-05T07:56:13.360Z,21.29
2023-05-05T07:58:42.288Z,21.28
2023-05-05T08:01:12.824Z,22.07
2023-05-05T08:03:41.074Z,22.02
2023-05-05T08:06:09.631Z,20.68
2023-05-05T08:08:38.097Z,21.50
2023-05-05T08:11:06.812Z,21.88
2023-05-05T08:13:35.206Z,22.79
2023-05-05T08:16:03.646Z,22.29
2023-05-05T08:18:31.853Z,22.94
2023-05-05T08:20:59.862Z,23.02
2023-05-05T08:23:27.940Z,22.19
2023-05-05T08:25:56.038Z,23.80
2023-05-05T08:28:24.082Z,24.37
2023-05-05T08:30:52.265Z,25.13
2023-05-05T08:33:20.300Z,24.82
2023-05-05T08:35:49.379Z,26.43
2023-05-05T08:38:19.126Z,26.29
2023-05-05T08:40:47.339Z,27.46
2023-05-05T08:43:15.982Z,27.75
2023-05-05T08:45:44.102Z,27.59
2023-05-05T08:48:13.076Z,27.62
2023-05-05T08:50:41.170Z,27.78
2023-05-05T08:53:10.864Z,26.36
2023-05-05T08:55:51.244Z,27.06
2023-05-05T08:58:19.822Z,27.79
2023-05-05T09:00:47.915Z,28.21
2023-05-05T09:03:16.507Z,29.38
2023-05-05T09:05:44.802Z,29.01
2023-05-05T09:08:13.097Z,28.80
2023-05-05T09:10:41.945Z,29.67
2023-05-05T09:13:09.930Z,29.24
2023-05-05T09:15:39.203Z,29.79
2023-05-05T09:18:12.258Z,29.66
2023-05-05T09:20:41.135Z,30.26
2023-05-05T09:23:16.570Z,30.18
2023-05-05T09:25:47.909Z,29.81
2023-05-05T09:28:17.800Z,30.29
2023-05-05T09:30:46.917Z,31.97
2023-05-05T09:33:15.848Z,31.25
2023-05-05T09:35:54.684Z,30.97
2023-05-05T09:38:24.081Z,31.55
2023-05-05T09:40:53.428Z,31.70
2023-05-05T09:43:23.005Z,32.35
2023-05-05T09:45:51.249Z,31.44
2023-05-05T09:48:30.255Z,31.62
2023-05-05T09:50:58.850Z,31.69
2023-05-05T09:53:39.228Z,31.22
2023-05-05T09:56:08.277Z,30.38
2023-05-05T09:58:36.575Z,30.16
2023-05-05T10:01:04.797Z,30.10
2023-05-05T10:03:33.093Z,29.91
2023-05-05T10:06:02.271Z,30.42
2023-05-05T10:08:31.628Z,30.61
2023-05-05T10:11:07.361Z,30.17
2023-05-05T10:13:40.274Z,30.04
2023-05-05T10:16:09.277Z,30.95
2023-05-05T10:18:37.375Z,29.74
2023-05-05T10:21:05.820Z,30.89
2023-05-05T10:23:43.958Z,30.84
2023-05-05T10:26:14.152Z,29.97
2023-05-05T10:28:50.949Z,29.44
2023-05-05T10:31:32.925Z,29.12
2023-05-05T10:34:06.803Z,29.02
2023-05-05T10:36:35.174Z,29.77
2023-05-05T10:39:03.546Z,28.88
2023-05-05T10:41:33.448Z,30.07
2023-05-05T10:44:03.686Z,31.37
2023-05-05T10:46:32.735Z,31.19
2023-05-05T10:49:19.776Z,31.46
2023-05-05T10:52:09.660Z,31.10
2023-05-05T10:54:49.885Z,31.15
2023-05-05T10:57:19.237Z,31.43
2023-05-05T10:59:47.748Z,31.85
2023-05-05T11:02:24.839Z,31.03
2023-05-05T11:05:22.875Z,32.47
2023-05-05T11:07:51.694Z,31.13
2023-05-05T11:10:20.892Z,30.70
2023-05-05T11:12:52.572Z,31.50
2023-05-05T11:15:26.895Z,30.78
2023-05-05T11:17:59.534Z,31.18
2023-05-05T11:20:39.937Z,30.61
2023-05-05T11:23:08.245Z,29.87
2023-05-05T11:25:41.189Z,30.06
2023-05-05T11:28:21.034Z,30.66
2023-05-05T11:30:55.352Z,31.53
2023-05-05T11:33:29.245Z,31.10
2023-05-05T11:35:59.146Z,31.84
2023-05-05T11:38:36.145Z,30.96
2023-05-05T11:41:10.306Z,31.19
2023-05-05T11:43:39.182Z,31.50
2023-05-05T11:46:14.638Z,32.24
2023-05-05T11:48:53.205Z,30.93
2023-05-05T11:51:22.315Z,30.68
2023-05-05T11:53:50.267Z,31.95
2023-05-05T11:56:22.462Z,32.53
2023-05-05T11:59:10.119Z,31.67
2023-05-05T12:01:41.834Z,32.41
2023-05-05T12:04:13.974Z,32.74
2023-05-05T12:06:43.102Z,32.66
2023-05-05T12:09:20.368Z,31.84
2023-05-05T12:11:53.156Z,32.02
2023-05-05T12:14:21.676Z,32.93
2023-05-05T12:17:08.756Z,33.09
2023-05-05T12:19:36.788Z,32.78
2023-05-05T12:22:05.332Z,32.55
2023-05-05T12:24:33.454Z,31.73
2023-05-05T12:27:11.382Z,31.32
2023-05-05T12:29:39.454Z,30.88
2023-05-05T12:32:07.548Z,31.16
2023-05-05T12:34:35.900Z,31.62
2023-05-05T12:37:04.215Z,31.66
2023-05-05T12:39:38.593Z,32.27
2023-05-05T12:42:06.713Z,32.46
2023-05-05T12:44:36.431Z,32.74
2023-05-05T12:47:04.965Z,33.10
2023-05-05T12:49:48.808Z,32.93
2023-05-05T12:52:17.077Z,32.58
2023-05-05T12:54:54.849Z,32.29
2023-05-05T12:57:23.542Z,32.15
2023-05-05T12:59:52.901Z,31.60
2023-05-05T13:02:21.468Z,31.19
2023-05-05T13:04:51.766Z,32.01
2023-05-05T13:07:22.621Z,32.38
2023-05-05T13:09:51.000Z,31.85
2023-05-05T13:12:19.209Z,31.42
2023-05-05T13:14:47.502Z,31.74
2023-05-05T13:17:15.573Z,31.84
2023-05-05T13:19:46.533Z,32.61
2023-05-05T13:22:14.795Z,33.23
2023-05-05T13:24:51.756Z,32.09
2023-05-05T13:27:21.362Z,32.60
2023-05-05T13:29:49.499Z,32.84
2023-05-05T13:32:17.440Z,32.44
2023-05-05T13:34:45.589Z,32.89
2023-05-05T13:37:13.858Z,32.69
2023-05-05T13:39:41.949Z,32.08
2023-05-05T13:42:10.186Z,32.33
2023-05-05T13:44:38.421Z,31.76
2023-05-05T13:47:06.552Z,31.59
2023-05-05T13:49:35.956Z,31.88
2023-05-05T13:52:04.052Z,31.78
2023-05-05T13:54:32.061Z,32.18
2023-05-05T13:57:00.288Z,32.49
2023-05-05T13:59:28.441Z,32.44
2023-05-05T14:01:56.623Z,32.33
2023-05-05T14:04:24.866Z,31.91
2023-05-05T14:06:53.592Z,31.01
2023-05-05T14:09:21.749Z,31.42
2023-05-05T14:11:50.028Z,31.18
2023-05-05T14:14:18.196Z,31.07
2023-05-05T14:16:48.478Z,31.34
2023-05-05T14:19:18.126Z,31.49
2023-05-05T14:21:46.380Z,31.51
2023-05-05T14:24:14.488Z,31.16
2023-05-05T14:26:42.518Z,29.50
2023-05-05T14:29:10.620Z,30.48
2023-05-05T14:31:38.660Z,30.43
2023-05-05T14:34:06.757Z,31.26
2023-05-05T14:36:34.927Z,31.46
2023-05-05T14:39:03.116Z,31.38
2023-05-05T14:41:31.211Z,31.77
2023-05-05T14:43:59.329Z,32.16
2023-05-05T14:46:27.658Z,32.68
2023-05-05T14:48:55.817Z,32.74
2023-05-05T14:51:23.867Z,33.07
2023-05-05T14:53:52.175Z,33.63
2023-05-05T14:56:22.742Z,33.93
2023-05-05T14:58:50.894Z,34.01
2023-05-05T15:01:20.956Z,34.16
2023-05-05T15:03:49.136Z,34.23
2023-05-05T15:06:17.311Z,34.14
2023-05-05T15:08:45.590Z,34.35
2023-05-05T15:11:14.064Z,32.57
2023-05-05T15:13:42.128Z,32.98
2023-05-05T15:16:10.383Z,33.98
2023-05-05T15:18:38.521Z,33.77
2023-05-05T15:21:06.828Z,35.12
2023-05-05T15:23:35.025Z,35.25
2023-05-05T15:26:03.512Z,35.58
2023-05-05T15:28:31.678Z,36.35
2023-05-05T15:31:02.919Z,36.36
2023-05-05T15:33:31.199Z,36.78
2023-05-05T15:35:59.681Z,37.06
2023-05-05T15:38:29.205Z,36.76
2023-05-05T15:40:57.456Z,36.82
2023-05-05T15:43:26.048Z,37.77
2023-05-05T15:45:54.213Z,37.20
2023-05-05T15:48:22.487Z,37.87
2023-05-05T15:50:50.578Z,37.73
2023-05-05T15:53:18.842Z,37.06
2023-05-05T15:55:47.025Z,37.23
2023-05-05T15:58:15.199Z,37.21
2023-05-05T16:00:43.357Z,37.21
2023-05-05T16:03:11.772Z,36.84
2023-05-05T16:05:39.932Z,36.43
2023-05-05T16:08:10.448Z,36.63
2023-05-05T16:10:38.412Z,36.99
2023-05-05T16:13:06.446Z,36.86
2023-05-05T16:15:35.688Z,36.28
2023-05-05T16:18:04.158Z,36.84
2023-05-05T16:20:32.304Z,37.77
2023-05-05T16:23:00.395Z,38.08
2023-05-05T16:25:28.387Z,37.82
2023-05-05T16:27:57.629Z,38.06
2023-05-05T16:30:26.234Z,38.53
2023-05-05T16:32:54.814Z,38.71
2023-05-05T16:35:23.552Z,39.00
2023-05-05T16:37:52.569Z,38.89
2023-05-05T16:40:20.695Z,38.98
2023-05-05T16:42:48.705Z,39.44
2023-05-05T16:45:16.990Z,39.76
2023-05-05T16:47:45.080Z,39.85
2023-05-05T16:50:13.318Z,40.04
2023-05-05T16:52:41.387Z,40.25
2023-05-05T16:55:09.779Z,40.97
2023-05-05T16:57:37.961Z,41.08
2023-05-05T17:00:07.123Z,41.15
2023-05-05T17:02:35.899Z,41.05
2023-05-05T17:05:04.321Z,41.26
2023-05-05T17:07:32.408Z,41.85
2023-05-05T17:10:00.359Z,42.30
2023-05-05T17:12:28.555Z,41.54
2023-05-05T17:14:56.608Z,41.88
2023-05-05T17:17:24.675Z,42.72
2023-05-05T17:19:52.796Z,42.11
2023-05-05T17:22:20.822Z,41.52
2023-05-05T17:24:48.898Z,41.77
2023-05-05T17:27:17.296Z,41.51
2023-05-05T17:29:45.227Z,41.47
2023-05-05T17:32:13.328Z,41.58
2023-05-05T17:34:41.522Z,42.15
2023-05-05T17:37:09.820Z,43.54
2023-05-05T17:39:37.966Z,44.16
2023-05-05T17:42:06.064Z,44.54
2023-05-05T17:44:34.171Z,44.95
2023-05-05T17:47:04.010Z,45.48
2023-05-05T17:49:32.040Z,45.48
2023-05-05T17:52:00.481Z,46.73
2023-05-05T17:54:28.474Z,46.50
2023-05-05T17:56:56.638Z,47.66
2023-05-05T17:59:24.804Z,47.80
2023-05-05T18:01:52.781Z,47.93
2023-05-05T18:04:20.899Z,48.67
2023-05-05T18:06:48.940Z,48.81
2023-05-05T18:09:17.809Z,47.71
2023-05-05T18:11:45.937Z,46.82
2023-05-05T18:14:13.995Z,48.35
2023-05-05T18:16:47.755Z,47.26
2023-05-05T18:19:18.155Z,48.59
2023-05-05T18:21:46.381Z,47.77
2023-05-05T18:24:19.949Z,47.47
2023-05-05T18:26:50.483Z,48.00
2023-05-05T18:29:19.357Z,47.82
2023-05-05T18:31:51.999Z,47.74
2023-05-05T18:34:20.795Z,48.07
2023-05-05T18:36:53.121Z,48.32
2023-05-05T18:39:26.265Z,48.20
2023-05-05T18:41:56.862Z,48.42
2023-05-05T18:44:34.965Z,49.49
2023-05-05T18:47:05.562Z,49.74
2023-05-05T18:49:34.085Z,50.22
2023-05-05T18:52:03.230Z,50.09
2023-05-05T18:54:36.238Z,50.71
2023-05-05T18:57:08.871Z,50.85
2023-05-05T18:59:37.437Z,50.96
2023-05-05T19:02:06.649Z,51.51
2023-05-05T19:04:38.174Z,52.03
2023-05-05T19:07:06.428Z,51.79
2023-05-05T19:09:34.894Z,52.46
2023-05-05T19:12:04.174Z,52.58
2023-05-05T19:14:33.544Z,52.47
2023-05-05T19:17:02.394Z,52.77
2023-05-05T19:19:33.810Z,52.49
2023-05-05T19:22:03.061Z,52.97
2023-05-05T19:24:31.952Z,53.57
2023-05-05T19:27:00.245Z,53.45
2023-05-05T19:29:33.786Z,53.62
2023-05-05T19:32:04.430Z,53.62
2023-05-05T19:34:33.941Z,54.12
2023-05-05T19:37:04.337Z,54.08
2023-05-05T19:39:33.207Z,53.67
2023-05-05T19:42:01.210Z,53.72
2023-05-05T19:44:29.344Z,53.91
2023-05-05T19:46:57.623Z,54.26
2023-05-05T19:49:25.704Z,54.48
2023-05-05T19:51:54.537Z,54.55
2023-05-05T19:54:24.529Z,54.52
2023-05-05T19:56:54.556Z,55.91
2023-05-05T19:59:23.746Z,57.58
2023-05-05T20:01:52.202Z,55.61
2023-05-05T20:04:20.466Z,55.29
2023-05-05T20:06:48.557Z,58.81
2023-05-05T20:09:17.489Z,57.87
2023-05-05T20:11:45.460Z,58.08
2023-05-05T20:14:13.564Z,58.50
2023-05-05T20:16:42.030Z,56.90
2023-05-05T20:19:10.039Z,57.50
2023-05-05T20:21:38.093Z,58.11
2023-05-05T20:24:07.191Z,57.58
2023-05-05T20:26:35.159Z,58.10
2023-05-05T20:29:03.230Z,59.68
2023-05-05T20:31:31.356Z,59.01
2023-05-05T20:33:59.399Z,60.49
2023-05-05T20:36:27.652Z,63.38
2023-05-05T20:38:55.851Z,63.56
2023-05-05T20:41:23.820Z,62.35
2023-05-05T20:43:51.834Z,57.79
2023-05-05T20:46:19.978Z,56.37
2023-05-05T20:48:47.989Z,57.02
2023-05-05T20:51:16.157Z,56.98
2023-05-05T20:53:44.181Z,59.28
2023-05-05T20:56:12.186Z,60.26
2023-05-05T20:58:40.229Z,59.54
2023-05-05T21:01:08.241Z,60.94
2023-05-05T21:03:38.763Z,60.83
2023-05-05T21:06:07.118Z,60.86
2023-05-05T21:08:35.162Z,60.18
2023-05-05T21:11:03.256Z,61.14
2023-05-05T21:13:32.478Z,60.47
2023-05-05T21:16:00.398Z,60.54
2023-05-05T21:18:28.450Z,64.15
2023-05-05T21:20:56.600Z,66.65
2023-05-05T21:23:24.810Z,62.59
2023-05-05T21:25:52.845Z,61.52
2023-05-05T21:28:20.956Z,58.01
2023-05-05T21:31:10.168Z,57.08
2023-05-05T21:33:39.088Z,58.32
2023-05-05T21:36:07.311Z,60.01
2023-05-05T21:38:35.439Z,60.11
2023-05-05T21:41:03.801Z,60.34
2023-05-05T21:43:31.825Z,61.41
2023-05-05T21:46:03.459Z,61.80
2023-05-05T21:48:31.553Z,63.13
2023-05-05T21:50:59.658Z,61.68
2023-05-05T21:53:29.250Z,60.20
2023-05-05T21:55:59.493Z,56.98
2023-05-05T21:58:27.726Z,56.86
2023-05-05T22:00:55.838Z,57.45
2023-05-05T22:03:24.353Z,58.89
2023-05-05T22:05:52.491Z,59.74
2023-05-05T22:08:20.634Z,60.83
2023-05-05T22:10:48.616Z,60.26
2023-05-05T22:13:16.693Z,60.88
2023-05-05T22:15:47.158Z,61.10
2023-05-05T22:18:15.929Z,62.72
2023-05-05T22:20:47.129Z,65.72
2023-05-05T22:23:16.271Z,64.81
2023-05-05T22:25:47.295Z,62.72
2023-05-05T22:28:15.410Z,59.61
2023-05-05T22:30:43.635Z,57.10
2023-05-05T22:33:11.873Z,56.39
2023-05-05T22:35:39.874Z,57.25
2023-05-05T22:38:07.984Z,57.98
2023-05-05T22:40:36.279Z,58.96
2023-05-05T22:43:04.434Z,61.51
2023-05-05T22:45:33.067Z,61.33
2023-05-05T22:48:01.045Z,59.92
2023-05-05T22:50:29.255Z,59.11
2023-05-05T22:53:03.541Z,60.52
2023-05-05T22:55:31.742Z,61.01
2023-05-05T22:58:02.607Z,60.26
2023-05-05T23:00:30.649Z,60.21
2023-05-05T23:02:58.740Z,62.36
2023-05-05T23:05:27.020Z,64.42
2023-05-05T23:07:55.188Z,66.25
2023-05-05T23:10:23.194Z,64.59
2023-05-05T23:12:52.011Z,62.78
2023-05-05T23:15:20.063Z,62.27
2023-05-05T23:17:48.116Z,59.39
2023-05-05T23:20:16.322Z,56.25
2023-05-05T23:22:44.488Z,56.20
2023-05-05T23:25:12.907Z,56.19
2023-05-05T23:27:41.384Z,57.43
2023-05-05T23:30:09.834Z,56.61
2023-05-05T23:32:38.048Z,56.79
2023-05-05T23:35:06.895Z,58.21
2023-05-05T23:37:34.894Z,58.05
2023-05-05T23:40:03.011Z,58.02
2023-05-05T23:42:30.950Z,60.55
2023-05-05T23:44:58.864Z,64.15
2023-05-05T23:47:27.001Z,65.53
2023-05-05T23:49:55.026Z,62.93
2023-05-05T23:52:23.052Z,62.11
2023-05-05T23:54:51.085Z,60.06
2023-05-05T23:57:19.158Z,57.65
2023-05-05T23:59:47.127Z,57.46
